Time;durP1;ratioP1;P1;durP2;ratioP2;P2;SDS_P1;SDS_P2;PMS_P1;PMS_P2;Temp;Humidity;BMP_temperature;BMP_pressure;BME280_temperature;BME280_humidity;BME280_pressure;Samples;Min_cycle;Max_cycle;Signal;HPM_P1;HPM_P2
2022/11/19 00:52:14;;;;;;;33.40;20.93;;;;;;;0.29;100.00;98504.81;6216611;23;20240;-80
2022/11/19 01:49:55;;;;;;;38.03;23.10;;;;;;;-0.19;100.00;98570.13;6230616;23;20236;-81
2022/11/19 01:52:32;;;;;;;40.67;23.97;;;;;;;0.04;100.00;98582.44;6191542;22;20216;-81
2022/11/19 01:55:08;;;;;;;39.20;24.47;;;;;;;-0.19;100.00;98585.13;6219408;23;20172;-82
2022/11/19 01:57:38;;;;;;;37.20;22.57;;;;;;;-0.19;100.00;98591.19;6202277;23;20189;-81
2022/11/19 02:06:15;;;;;;;35.37;21.40;;;;;;;-0.29;100.00;98611.69;6220933;23;20225;-81
2022/11/19 02:08:44;;;;;;;35.27;22.03;;;;;;;-0.53;100.00;98609.19;6235786;23;20272;-81
2022/11/19 02:30:02;;;;;;;34.70;19.20;;;;;;;-0.93;100.00;98623.34;6212504;23;20192;31
2022/11/19 02:42:30;;;;;;;33.97;20.23;;;;;;;-1.47;100.00;98653.94;6147768;23;20218;-82
2022/11/19 02:45:19;;;;;;;35.50;20.37;;;;;;;-1.50;100.00;98649.00;6095869;23;20283;-81
2022/11/19 02:47:54;;;;;;;32.57;19.50;;;;;;;-1.48;100.00;98662.78;6111815;23;20278;-83
2022/11/19 02:50:25;;;;;;;35.27;20.20;;;;;;;-1.55;100.00;98660.03;6087438;23;20218;-81
2022/11/19 02:52:53;;;;;;;37.47;21.53;;;;;;;-1.52;100.00;98666.72;6059754;23;20232;-79
2022/11/19 02:55:20;;;;;;;34.53;20.30;;;;;;;-1.45;100.00;98665.09;6098281;23;20212;-79
2022/11/19 02:58:09;;;;;;;40.53;22.87;;;;;;;-1.48;100.00;98675.91;6076572;23;20203;-80
2022/11/19 03:06:25;;;;;;;39.27;22.57;;;;;;;-1.61;100.00;98659.84;6118777;23;20203;-85
2022/11/19 03:09:07;;;;;;;39.90;22.43;;;;;;;-1.57;100.00;98672.50;6119560;23;20203;-82
2022/11/19 03:11:34;;;;;;;41.83;23.07;;;;;;;-1.63;100.00;98688.09;6109823;23;20205;-80
2022/11/19 03:16:54;;;;;;;38.13;21.87;;;;;;;-1.46;100.00;98680.03;6131537;23;20274;-81
2022/11/19 03:19:35;;;;;;;41.67;22.90;;;;;;;-1.53;100.00;98697.44;6077972;23;20751;-77
2022/11/19 03:22:22;;;;;;;41.13;24.33;;;;;;;-1.44;100.00;98685.09;6125569;23;20215;-77
2022/11/19 03:24:54;;;;;;;40.37;22.80;;;;;;;-1.42;100.00;98678.72;6105150;23;20211;-80
2022/11/19 03:27:28;;;;;;;43.50;24.03;;;;;;;-1.43;100.00;98699.88;6106244;23;20215;-80
2022/11/19 03:29:56;;;;;;;42.53;24.00;;;;;;;-1.49;100.00;98708.44;6104578;23;20203;-79
2022/11/19 03:32:48;;;;;;;40.83;23.37;;;;;;;-1.44;100.00;98714.84;6078111;23;20203;-79
2022/11/19 03:35:18;;;;;;;39.87;24.03;;;;;;;-1.34;100.00;98702.34;6091165;23;20270;-79
2022/11/19 03:37:49;;;;;;;45.33;24.30;;;;;;;-1.22;100.00;98715.16;6078034;23;20205;-79
2022/11/19 03:40:17;;;;;;;43.50;25.07;;;;;;;-1.13;100.00;98717.59;6102692;23;20211;-79
2022/11/19 03:42:47;;;;;;;45.63;25.20;;;;;;;-1.14;100.00;98718.56;6102680;23;20550;-79
2022/11/19 03:45:17;;;;;;;44.93;26.37;;;;;;;-1.20;100.00;98729.75;6073591;23;20214;-81
2022/11/19 03:47:46;;;;;;;43.27;25.37;;;;;;;-1.14;100.00;98739.59;6086692;23;20203;-80
2022/11/19 03:50:22;;;;;;;44.67;25.13;;;;;;;-1.00;100.00;98752.06;6084710;23;20239;-80
2022/11/19 03:52:49;;;;;;;40.67;24.03;;;;;;;-1.16;100.00;98748.63;6112037;23;20207;-80
2022/11/19 03:55:16;;;;;;;44.13;25.27;;;;;;;-1.26;100.00;98755.91;6112592;23;20210;-81
2022/11/19 03:57:45;;;;;;;43.13;23.90;;;;;;;-1.27;100.00;98754.25;6095460;23;20217;-81
2022/11/19 04:00:14;;;;;;;45.00;25.03;;;;;;;-1.22;100.00;98750.16;6078184;23;20219;-83
2022/11/19 04:02:41;;;;;;;45.50;25.83;;;;;;;-1.29;100.00;98751.78;6112818;23;20219;-81
2022/11/19 04:05:09;;;;;;;44.93;26.13;;;;;;;-1.31;100.00;98760.81;6086914;23;20207;-81
2022/11/19 04:07:39;;;;;;;47.00;26.50;;;;;;;-1.27;100.00;98770.84;6092286;23;20211;-81
2022/11/19 04:10:06;;;;;;;48.70;27.30;;;;;;;-1.34;100.00;98777.72;6112020;23;20682;-81
2022/11/19 04:12:33;;;;;;;48.17;26.87;;;;;;;-1.19;100.00;98776.09;6085674;23;20576;-81
2022/11/19 04:15:01;;;;;;;49.57;28.30;;;;;;;-1.02;100.00;98777.69;6088022;23;20207;-81
2022/11/19 04:17:29;;;;;;;51.63;27.03;;;;;;;-1.01;100.00;98771.47;6067966;23;20216;-81
2022/11/19 04:19:56;;;;;;;50.10;28.20;;;;;;;-1.00;100.00;98777.53;6093593;23;20218;-81
2022/11/19 04:22:24;;;;;;;48.70;28.10;;;;;;;-0.98;100.00;98784.25;6091516;23;20203;-81
2022/11/19 04:24:51;;;;;;;50.30;28.10;;;;;;;-1.04;100.00;98792.00;6068253;23;20255;-81
2022/11/19 04:27:19;;;;;;;52.43;28.37;;;;;;;-1.01;100.00;98789.88;6090935;23;20215;-82
2022/11/19 04:29:46;;;;;;;51.27;28.47;;;;;;;-0.97;100.00;98787.72;6067875;23;20278;-82
2022/11/19 04:32:13;;;;;;;46.67;27.93;;;;;;;-0.94;100.00;98801.38;6090846;23;20207;-82
2022/11/19 04:34:44;;;;;;;51.23;28.40;;;;;;;-0.99;100.00;98800.22;6096243;23;20192;-83
2022/11/19 05:09:03;;;;;;;46.67;25.53;;;;;;;-0.98;100.00;98857.09;6152886;23;20213;-81
2022/11/19 05:11:29;;;;;;;47.77;26.17;;;;;;;-1.21;100.00;98843.75;6159118;23;20257;-81
2022/11/19 05:13:56;;;;;;;48.20;26.97;;;;;;;-1.08;100.00;98854.63;6159058;23;20261;-80
2022/11/19 05:16:23;;;;;;;47.00;27.17;;;;;;;-1.17;100.00;98852.16;6157461;23;20210;-80
2022/11/19 05:18:49;;;;;;;49.57;27.77;;;;;;;-1.17;100.00;98841.63;6160764;23;20217;-80
2022/11/19 05:21:16;;;;;;;47.33;26.50;;;;;;;-1.08;100.00;98845.91;6160520;23;20702;-80
2022/11/19 05:23:43;;;;;;;47.33;26.70;;;;;;;-1.11;100.00;98844.41;6160184;23;20203;-80
2022/11/19 05:26:09;;;;;;;49.87;28.00;;;;;;;-1.11;100.00;98852.31;6160503;23;20209;-81
2022/11/19 05:28:36;;;;;;;49.87;27.60;;;;;;;-1.22;100.00;98855.28;6160391;23;20206;-80
2022/11/19 05:31:06;;;;;;;49.70;27.60;;;;;;;-1.10;100.00;98869.72;6134444;23;20233;-80
2022/11/19 05:33:33;;;;;;;51.03;28.10;;;;;;;-1.05;100.00;98867.44;6134889;23;20202;-81
2022/11/19 05:36:00;;;;;;;48.70;27.40;;;;;;;-1.02;100.00;98861.00;6163060;23;20314;-80
2022/11/19 05:38:27;;;;;;;47.40;26.67;;;;;;;-0.91;100.00;98865.94;6137022;23;20213;-81
2022/11/19 05:40:54;;;;;;;48.03;27.37;;;;;;;-0.94;100.00;98868.91;6138112;23;20213;-81
2022/11/19 05:43:20;;;;;;;45.03;25.73;;;;;;;-0.96;100.00;98871.69;6138164;23;20233;-81
2022/11/19 05:45:47;;;;;;;48.40;26.50;;;;;;;-0.91;100.00;98861.50;6134124;23;20202;-80
2022/11/19 05:48:13;;;;;;;50.83;27.53;;;;;;;-0.95;100.00;98862.00;6160500;23;20159;-77
2022/11/19 05:50:41;;;;;;;43.30;25.07;;;;;;;-0.95;100.00;98869.91;6157862;23;20163;-78
2022/11/19 05:53:08;;;;;;;42.27;24.27;;;;;;;-0.90;100.00;98873.69;6157735;23;20159;-78
2022/11/19 05:55:35;;;;;;;39.90;23.23;;;;;;;-1.06;100.00;98880.72;6157670;23;20167;-78
2022/11/19 05:58:01;;;;;;;41.37;23.77;;;;;;;-1.07;100.00;98884.34;6158005;23;20163;-78
2022/11/19 06:00:28;;;;;;;38.80;23.53;;;;;;;-1.11;100.00;98878.59;6157741;23;20163;-77
2022/11/19 06:02:55;;;;;;;40.37;24.60;;;;;;;-1.15;100.00;98886.97;6107784;23;20163;-78
2022/11/19 06:05:21;;;;;;;40.83;23.40;;;;;;;-1.08;100.00;98895.84;6157494;23;20182;-78
2022/11/19 06:07:48;;;;;;;35.43;21.90;;;;;;;-1.05;100.00;98900.78;6157329;23;20163;-77
2022/11/19 06:10:15;;;;;;;36.90;22.77;;;;;;;-1.12;100.00;98889.28;6131948;23;20151;-78
2022/11/19 06:12:42;;;;;;;36.90;22.43;;;;;;;-1.12;100.00;98900.59;6157603;23;20164;-78
2022/11/19 06:15:12;;;;;;;33.47;21.07;;;;;;;-1.09;100.00;98904.72;6157449;23;20246;-77
2022/11/19 06:17:39;;;;;;;34.97;21.67;;;;;;;-1.04;100.00;98907.69;6131651;23;20166;-78
2022/11/19 06:20:09;;;;;;;36.67;22.37;;;;;;;-0.92;100.00;98904.56;6157469;23;20159;-78
2022/11/19 06:22:37;;;;;;;35.63;21.47;;;;;;;-0.92;100.00;98911.63;6157063;23;20715;-78
2022/11/19 06:25:04;;;;;;;36.80;22.73;;;;;;;-0.85;100.00;98923.16;6155997;23;20648;-78
2022/11/19 06:27:31;;;;;;;36.70;22.93;;;;;;;-0.81;100.00;98921.84;6137825;23;20218;-78
2022/11/19 06:29:57;;;;;;;38.17;22.87;;;;;;;-0.85;100.00;98910.00;6126664;23;20525;-78
2022/11/19 06:32:24;;;;;;;40.30;24.33;;;;;;;-0.83;100.00;98918.53;6124959;23;20278;-78
2022/11/19 06:34:50;;;;;;;34.40;22.37;;;;;;;-0.77;100.00;98920.50;6126721;23;20207;-78
2022/11/19 06:37:17;;;;;;;39.13;23.13;;;;;;;-0.66;100.00;98943.03;6126633;23;20262;-78
2022/11/19 06:39:44;;;;;;;37.33;23.13;;;;;;;-0.81;100.00;98936.78;6124925;23;20203;-78
2022/11/19 06:44:55;;;;;;;41.03;23.83;;;;;;;-0.63;100.00;98946.16;6126449;23;20238;-77
2022/11/19 06:47:22;;;;;;;38.83;23.70;;;;;;;-0.55;100.00;98940.06;6127104;23;20675;-78
2022/11/19 06:49:48;;;;;;;40.10;24.13;;;;;;;-0.54;100.00;98942.53;6124846;23;20203;-78
2022/11/19 06:52:15;;;;;;;42.40;24.87;;;;;;;-0.45;100.00;98922.28;6125925;23;20564;-78
2022/11/19 06:54:41;;;;;;;40.07;24.47;;;;;;;-0.37;100.00;98916.22;6125967;23;20232;-78
2022/11/19 06:57:09;;;;;;;40.50;24.20;;;;;;;-0.26;100.00;98929.84;6126488;23;20677;-77
2022/11/19 06:59:37;;;;;;;40.17;24.97;;;;;;;-0.26;100.00;98926.38;6125025;23;20218;-78
2022/11/19 07:02:05;;;;;;;38.63;23.30;;;;;;;-0.11;100.00;98937.88;6099914;23;20238;-77
2022/11/19 07:04:31;;;;;;;37.13;23.30;;;;;;;-0.05;100.00;98951.16;6126084;23;20218;-78
2022/11/19 07:06:58;;;;;;;38.57;23.60;;;;;;;-0.14;100.00;98965.34;6100757;23;20214;-78
2022/11/19 07:09:25;;;;;;;37.33;23.03;;;;;;;-0.20;100.00;98967.84;6125973;23;20203;-78
2022/11/19 07:11:51;;;;;;;41.73;24.47;;;;;;;-0.13;100.00;98948.56;6111615;23;20214;-78
2022/11/19 07:14:18;;;;;;;39.83;23.40;;;;;;;-0.11;100.00;98970.28;6125773;23;20211;-77
2022/11/19 07:16:44;;;;;;;37.37;23.53;;;;;;;-0.08;100.00;98969.13;6126480;23;20203;-78
2022/11/19 07:19:11;;;;;;;39.67;22.93;;;;;;;-0.06;100.00;98975.88;6126046;23;20207;-78
2022/11/19 07:21:37;;;;;;;37.83;22.50;;;;;;;0.09;100.00;98977.81;6126097;23;20208;-76
2022/11/19 07:24:07;;;;;;;37.33;22.80;;;;;;;0.28;100.00;98975.59;6094605;23;20207;-75
2022/11/19 07:26:35;;;;;;;37.60;22.90;;;;;;;0.21;100.00;98974.66;6126481;23;20653;-75
2022/11/19 07:29:04;;;;;;;36.40;22.57;;;;;;;0.28;100.00;98980.88;6126748;23;20222;-76
2022/11/19 07:31:31;;;;;;;34.67;21.73;;;;;;;0.25;100.00;98983.84;6077235;23;20211;-76
2022/11/19 07:33:57;;;;;;;35.57;22.67;;;;;;;0.31;100.00;98992.91;6126898;23;20214;-76
2022/11/19 07:36:24;;;;;;;36.87;22.50;;;;;;;0.33;100.00;98981.19;6126053;23;20200;-76
2022/11/19 07:38:51;;;;;;;33.17;21.83;;;;;;;0.36;100.00;98978.22;6127294;23;20194;-76
2022/11/19 07:44:04;;;;;;;32.27;20.43;;;;;;;0.36;100.00;99001.13;6104530;23;20683;-76
2022/11/19 07:46:30;;;;;;;32.67;20.57;;;;;;;0.52;100.00;99005.50;6127024;23;20211;-76
2022/11/19 07:48:58;;;;;;;33.80;20.33;;;;;;;0.50;100.00;99015.41;6126585;23;20237;-76
2022/11/19 07:51:25;;;;;;;31.90;20.17;;;;;;;0.26;100.00;99016.28;6101234;23;20208;-76
2022/11/19 07:53:53;;;;;;;30.67;19.90;;;;;;;0.15;100.00;99006.09;6100793;23;20214;-76
2022/11/19 07:56:20;;;;;;;29.43;19.50;;;;;;;0.11;100.00;99010.06;6125644;23;20211;-76
2022/11/19 07:58:47;;;;;;;30.00;19.17;;;;;;;0.18;100.00;99008.41;6126286;23;20230;-77
2022/11/19 08:01:18;;;;;;;30.90;19.03;;;;;;;0.14;100.00;99010.53;6126315;23;20204;-76
2022/11/19 08:03:46;;;;;;;28.57;18.37;;;;;;;0.18;100.00;99019.78;6126729;23;20204;-76
2022/11/19 08:06:21;;;;;;;27.17;18.53;;;;;;;0.26;100.00;99011.03;6125777;23;20198;-77
2022/11/19 08:08:47;;;;;;;29.37;18.90;;;;;;;0.25;100.00;99010.19;6100716;23;20204;-77
2022/11/19 08:11:15;;;;;;;28.57;18.77;;;;;;;0.33;100.00;99011.97;6126582;23;20282;-76
2022/11/19 08:13:42;;;;;;;27.60;18.17;;;;;;;0.46;100.00;99022.00;6126317;23;20199;-79
2022/11/19 08:16:11;;;;;;;28.77;18.30;;;;;;;0.48;100.00;99012.91;6125602;23;20215;-79
2022/11/19 08:18:38;;;;;;;25.90;17.30;;;;;;;0.38;100.00;99014.94;6100989;23;20289;-79
2022/11/19 08:21:09;;;;;;;20.93;14.30;;;;;;;-0.33;100.00;99018.38;6100763;23;20565;-77
2022/11/19 08:23:37;;;;;;;23.10;14.87;;;;;;;-0.02;100.00;99016.69;6099894;23;20211;-77
2022/11/19 08:26:07;;;;;;;23.13;15.70;;;;;;;0.11;100.00;99012.69;6125073;23;20680;-76
2022/11/19 08:28:33;;;;;;;24.40;15.70;;;;;;;0.00;100.00;99006.78;6111898;23;20199;-76
2022/11/19 08:31:07;;;;;;;25.20;16.57;;;;;;;0.22;100.00;99001.81;6124488;23;20203;-77
2022/11/19 08:33:34;;;;;;;25.53;16.43;;;;;;;0.37;100.00;99011.47;6099951;23;20238;-77
2022/11/19 08:36:01;;;;;;;25.63;16.73;;;;;;;0.16;100.00;99008.56;6125719;23;20215;-77
2022/11/19 08:38:27;;;;;;;25.77;17.53;;;;;;;0.23;100.00;99011.38;6123582;23;20730;-76
2022/11/19 08:42:58;;;;;;;28.63;17.10;;;;;;;0.19;100.00;99016.13;6125476;23;20230;-77
2022/11/19 08:43:41;;;;;;;27.93;18.00;;;;;;;0.23;100.00;99025.38;6125603;23;20286;-77
2022/11/19 08:46:07;;;;;;;27.27;18.20;;;;;;;0.15;100.00;99032.44;6123708;23;20219;-77
2022/11/19 08:48:34;;;;;;;28.77;18.60;;;;;;;0.10;100.00;99040.03;6104936;23;20230;-77
2022/11/19 08:51:04;;;;;;;28.37;18.17;;;;;;;0.17;100.00;99033.94;6107216;23;20210;-76
2022/11/19 08:53:30;;;;;;;28.53;17.83;;;;;;;0.29;100.00;99037.84;6125411;23;20211;-77
2022/11/19 08:55:57;;;;;;;24.97;16.60;;;;;;;0.08;100.00;99040.22;6125405;23;20231;-76
2022/11/19 08:58:24;;;;;;;27.80;17.07;;;;;;;0.00;100.00;99050.75;6124890;23;20574;-76
2022/11/19 09:00:50;;;;;;;25.33;16.60;;;;;;;-0.12;100.00;99054.72;6125204;23;20286;-76
2022/11/19 09:03:17;;;;;;;27.77;16.60;;;;;;;-0.13;100.00;99060.94;6125330;23;20231;-76
2022/11/19 09:05:44;;;;;;;24.13;16.63;;;;;;;-0.07;100.00;99068.19;6125130;23;20215;-76
2022/11/19 09:08:10;;;;;;;25.73;17.03;;;;;;;0.11;100.00;99054.84;6124657;23;20203;-77
2022/11/19 09:10:37;;;;;;;26.23;16.73;;;;;;;0.00;100.00;99063.94;6127664;23;20203;-78
2022/11/19 09:13:04;;;;;;;27.20;18.27;;;;;;;0.37;100.00;99068.66;6102217;23;20207;-79
2022/11/19 09:15:31;;;;;;;25.30;16.60;;;;;;;0.32;100.00;99068.31;6127124;23;20272;-78
2022/11/19 09:17:58;;;;;;;27.33;17.43;;;;;;;0.32;100.00;99081.50;6101907;23;20218;-77
2022/11/19 09:20:24;;;;;;;26.77;18.00;;;;;;;0.54;100.00;99067.59;6116760;23;20206;-78
2022/11/19 09:22:51;;;;;;;27.33;17.13;;;;;;;0.54;100.00;99067.59;6087691;23;20202;-79
2022/11/19 09:25:17;;;;;;;25.67;16.33;;;;;;;0.48;100.00;99062.16;6098898;23;20543;-79
2022/11/19 09:44:44;;;;;;;17.50;11.17;;;;;;;1.27;100.00;99069.91;6191150;23;20227;-79
2022/11/19 09:47:29;;;;;;;13.60;9.73;;;;;;;1.08;100.00;99065.88;6220742;23;20212;-79
2022/11/19 09:50:19;;;;;;;17.33;12.70;;;;;;;1.22;100.00;99066.97;6222650;23;20213;-80
2022/11/19 09:52:51;;;;;;;16.43;12.30;;;;;;;1.57;100.00;99076.16;6201654;23;20205;-80
2022/11/19 09:55:44;;;;;;;18.23;12.37;;;;;;;0.84;100.00;99073.94;6175205;23;20217;-81
2022/11/19 10:04:05;;;;;;;16.73;11.70;;;;;;;1.76;100.00;99062.50;6154641;23;20254;-80
2022/11/19 10:07:00;;;;;;;16.40;11.70;;;;;;;1.14;100.00;99053.81;6138570;23;20186;-81
2022/11/19 10:10:12;;;;;;;18.77;12.63;;;;;;;1.38;100.00;99064.25;6185974;23;20201;-80
2022/11/19 10:13:10;;;;;;;18.97;13.07;;;;;;;1.57;100.00;99066.44;6193876;23;20202;-80
2022/11/19 10:15:56;;;;;;;18.83;13.27;;;;;;;1.99;100.00;99067.75;6166716;23;20216;-80
2022/11/19 10:18:31;;;;;;;17.57;11.87;;;;;;;1.86;100.00;99063.09;6190852;23;20224;-79
2022/11/19 10:21:35;;;;;;;19.10;12.70;;;;;;;1.66;100.00;99067.19;6167176;23;20205;-79
2022/11/19 10:24:16;;;;;;;16.50;12.30;;;;;;;1.65;100.00;99069.00;6163962;23;20217;-78
2022/11/19 10:26:49;;;;;;;16.87;11.70;;;;;;;1.57;100.00;99065.59;6187849;23;20206;-79
2022/11/19 10:29:20;;;;;;;17.77;12.20;;;;;;;1.33;100.00;99053.38;6165160;23;20210;-78
2022/11/19 10:31:49;;;;;;;17.20;12.03;;;;;;;1.42;100.00;99041.78;6187146;23;20560;-78
2022/11/19 10:34:26;;;;;;;18.37;12.37;;;;;;;1.48;100.00;99043.72;6162661;23;20202;-79
2022/11/19 10:37:00;;;;;;;15.93;11.73;;;;;;;1.36;100.00;99034.56;6162522;23;20260;-78
2022/11/19 10:39:31;;;;;;;17.53;12.43;;;;;;;1.47;100.00;99028.88;6191649;23;20214;-80
2022/11/19 10:42:05;;;;;;;17.50;12.80;;;;;;;2.09;100.00;99040.09;6201633;23;20666;-80
2022/11/19 10:44:44;;;;;;;17.00;12.70;;;;;;;1.97;100.00;99033.56;6169064;23;20224;-79
2022/11/19 10:47:30;;;;;;;18.10;13.13;;;;;;;1.95;100.00;99050.63;6191288;23;20217;-79
2022/11/19 10:49:56;;;;;;;17.87;12.57;;;;;;;2.43;100.00;99036.09;6164691;23;20210;-79
2022/11/19 10:52:26;;;;;;;17.10;11.97;;;;;;;1.96;100.00;99037.22;6188833;23;20204;-78
2022/11/19 10:54:57;;;;;;;18.13;12.47;;;;;;;2.52;100.00;99046.38;6188518;23;20206;-79
2022/11/19 10:57:25;;;;;;;15.77;11.17;;;;;;;2.92;100.00;99031.88;6197524;23;20210;-80
2022/11/19 10:59:52;;;;;;;15.63;11.90;;;;;;;2.73;100.00;99024.50;6169738;23;20210;-78
2022/11/19 11:02:48;;;;;;;13.70;10.37;;;;;;;2.41;100.00;99031.00;6135975;23;20210;-79
2022/11/19 11:05:17;;;;;;;17.20;11.93;;;;;;;3.05;100.00;99024.09;6186154;23;20220;-78
2022/11/19 11:07:56;;;;;;;17.23;11.73;;;;;;;3.12;100.00;99036.59;6189205;23;20206;-79
2022/11/19 11:10:28;;;;;;;19.67;13.47;;;;;;;2.61;100.00;99057.72;6160847;23;20205;-78
2022/11/19 11:15:44;;;;;;;19.00;13.50;;;;;;;3.26;100.00;99025.13;6132622;23;20683;-79
2022/11/19 11:18:13;;;;;;;18.73;13.80;;;;;;;3.41;100.00;99031.19;6158930;23;20655;-78
2022/11/19 11:20:48;;;;;;;18.77;13.70;;;;;;;3.10;100.00;99021.72;6188099;23;20206;-79
2022/11/19 11:23:17;;;;;;;18.53;13.17;;;;;;;3.06;100.00;99024.91;6143939;23;20206;-79
2022/11/19 11:26:17;;;;;;;19.73;13.50;;;;;;;2.89;100.00;99032.22;6157180;23;20206;-78
2022/11/19 11:29:13;;;;;;;20.20;13.90;;;;;;;3.06;100.00;99043.44;6104874;23;20211;-78
2022/11/19 11:31:46;;;;;;;19.30;14.23;;;;;;;3.21;100.00;99040.75;6157059;23;20273;-79
2022/11/19 11:34:29;;;;;;;18.80;13.87;;;;;;;2.49;100.00;99041.47;6130378;23;20587;-78
2022/11/19 11:36:57;;;;;;;19.67;12.80;;;;;;;2.41;100.00;99038.94;6157430;23;20214;-78
2022/11/19 11:39:27;;;;;;;19.27;13.57;;;;;;;2.52;100.00;99038.47;6156612;23;20229;-79
2022/11/19 11:41:55;;;;;;;20.03;13.27;;;;;;;2.53;100.00;99026.88;6131062;23;20743;-78
2022/11/19 11:44:53;;;;;;;16.80;11.73;;;;;;;1.90;100.00;99016.81;6106764;23;20200;-78
2022/11/19 11:47:22;;;;;;;17.73;12.73;;;;;;;2.45;100.00;99032.28;6092803;23;20219;-78
2022/11/19 11:50:13;;;;;;;18.77;13.23;;;;;;;2.15;100.00;99035.88;6156403;23;20209;-79
2022/11/19 11:52:45;;;;;;;15.83;11.80;;;;;;;2.63;100.00;99023.97;6130306;23;20202;-78
2022/11/19 11:55:34;;;;;;;16.13;11.83;;;;;;;2.32;100.00;99028.63;6156223;23;20266;-78
2022/11/19 11:58:04;;;;;;;16.20;11.87;;;;;;;2.33;100.00;99023.16;6128256;23;20211;-78
2022/11/19 12:00:44;;;;;;;92.67;56.33;;;;;;;2.56;100.00;99025.72;6156071;23;20198;-78
2022/11/19 12:03:17;;;;;;;18.63;13.07;;;;;;;2.79;100.00;99012.38;6130619;23;20202;-78
2022/11/19 12:05:56;;;;;;;16.77;11.67;;;;;;;3.01;100.00;99012.25;6155738;23;20211;-78
2022/11/19 12:08:53;;;;;;;16.93;11.93;;;;;;;2.91;100.00;99005.59;6092419;23;20560;-78
2022/11/19 12:11:25;;;;;;;18.30;12.50;;;;;;;2.35;100.00;99012.38;6156537;23;20191;-78
2022/11/19 12:13:59;;;;;;;19.60;13.67;;;;;;;2.94;100.00;99013.19;6156031;23;20591;-78
2022/11/19 12:17:15;;;;;;;16.87;12.77;;;;;;;3.08;100.00;99009.66;6130312;23;20293;-78
2022/11/19 12:20:02;;;;;;;16.60;11.73;;;;;;;2.62;100.00;99007.28;6156796;23;20214;-80
2022/11/19 12:22:40;;;;;;;15.43;12.13;;;;;;;2.10;100.00;99019.78;6158047;23;20631;-79
2022/11/19 12:25:20;;;;;;;17.33;12.90;;;;;;;1.72;100.00;99006.56;6157359;23;20230;-78
2022/11/19 12:27:47;;;;;;;18.07;12.03;;;;;;;2.09;100.00;98999.63;6106312;23;20514;-78
2022/11/19 12:30:22;;;;;;;16.33;11.97;;;;;;;2.14;100.00;99002.56;6156510;23;20207;-78
2022/11/19 12:33:12;;;;;;;14.80;10.80;;;;;;;1.94;100.00;98996.13;6141911;23;20230;-78
2022/11/19 12:35:51;;;;;;;15.30;10.30;;;;;;;1.93;100.00;98991.84;6131145;23;20206;-79
2022/11/19 12:38:48;;;;;;;14.63;10.50;;;;;;;2.04;100.00;98996.69;6157198;23;20210;-78
2022/11/19 12:41:56;;;;;;;14.83;10.20;;;;;;;1.42;100.00;98986.34;6157823;23;20191;-79
2022/11/19 12:44:27;;;;;;;13.93;10.03;;;;;;;1.95;100.00;98995.97;6131076;23;20237;-79
2022/11/19 12:47:28;;;;;;;13.27;9.63;;;;;;;1.91;100.00;99009.72;6131386;23;20210;-79
2022/11/19 12:50:10;;;;;;;12.47;9.83;;;;;;;2.23;100.00;99006.75;6144624;23;20656;-78
2022/11/19 12:52:49;;;;;;;12.93;9.07;;;;;;;2.63;100.00;99013.38;6156122;23;20261;-78
2022/11/19 12:55:18;;;;;;;14.20;9.97;;;;;;;2.82;100.00;99010.19;6127587;23;20207;-79
2022/11/19 12:57:55;;;;;;;13.33;10.20;;;;;;;2.57;100.00;99006.19;6147402;23;20206;-78
2022/11/19 13:00:23;;;;;;;19.93;12.83;;;;;;;2.58;100.00;98999.88;6130470;23;20198;-78
2022/11/19 13:03:11;;;;;;;22.40;14.07;;;;;;;2.75;100.00;99006.66;6131352;23;20202;-78
2022/11/19 13:05:48;;;;;;;14.27;11.10;;;;;;;2.83;100.00;98997.78;6131232;23;20207;-78
2022/11/19 13:08:37;;;;;;;13.43;10.43;;;;;;;2.91;100.00;98984.44;6113815;23;20213;-78
2022/11/19 13:11:43;;;;;;;13.50;10.47;;;;;;;2.95;100.00;99002.38;6123500;23;20202;-79
2022/11/19 13:14:20;;;;;;;13.00;10.43;;;;;;;3.07;100.00;99002.75;6073171;23;20206;-78
2022/11/19 13:16:47;;;;;;;12.70;10.10;;;;;;;2.77;100.00;99007.25;6106983;23;20245;-78
2022/11/19 13:19:21;;;;;;;14.00;10.17;;;;;;;2.41;100.00;99001.09;6130164;23;20213;-78
2022/11/19 13:22:05;;;;;;;13.83;10.30;;;;;;;1.92;100.00;99006.03;6130601;23;20210;-78
2022/11/19 13:24:41;;;;;;;14.10;10.73;;;;;;;1.68;100.00;99007.91;6110707;23;20684;-78
2022/11/19 13:27:18;;;;;;;14.33;11.17;;;;;;;1.92;100.00;99011.31;6114001;23;20226;-79
2022/11/19 13:29:59;;;;;;;28.03;17.10;;;;;;;1.83;100.00;99013.22;6131673;23;20658;-78
2022/11/19 13:32:34;;;;;;;12.73;10.00;;;;;;;1.60;100.00;98996.59;6155258;23;20230;-78
2022/11/19 13:35:12;;;;;;;14.40;10.83;;;;;;;1.34;100.00;98991.69;6130577;23;20225;-79
2022/11/19 13:37:48;;;;;;;16.90;11.60;;;;;;;1.09;100.00;98998.13;6130430;23;20237;-78
2022/11/19 13:40:22;;;;;;;16.23;11.00;;;;;;;1.22;100.00;99011.56;6131668;23;20222;-79
2022/11/19 13:46:11;;;;;;;16.90;11.37;;;;;;;1.04;100.00;99008.38;6137529;23;20232;-79
2022/11/19 13:48:44;;;;;;;15.00;10.93;;;;;;;1.21;100.00;99005.44;6155452;23;20211;-78
2022/11/19 13:51:21;;;;;;;15.30;11.53;;;;;;;1.08;100.00;99007.84;6128780;23;20712;-78
2022/11/19 13:53:48;;;;;;;16.03;11.27;;;;;;;1.13;100.00;99010.78;6129672;23;20285;-78
2022/11/19 13:56:16;;;;;;;18.20;12.47;;;;;;;0.90;100.00;99009.94;6129425;23;20213;-78
2022/11/19 13:58:47;;;;;;;17.67;12.47;;;;;;;1.25;100.00;99009.41;6155995;23;20218;-79
2022/11/19 14:01:39;;;;;;;17.03;12.13;;;;;;;1.43;100.00;99017.03;6128877;23;20583;-78
2022/11/19 14:04:42;;;;;;;18.43;12.60;;;;;;;1.48;100.00;99021.78;6106225;23;20541;-78
2022/11/19 14:07:32;;;;;;;22.47;13.60;;;;;;;1.52;100.00;99020.44;6157791;23;20335;-78
2022/11/19 14:10:17;;;;;;;18.90;12.60;;;;;;;1.40;100.00;99014.72;6157751;23;20202;-78
2022/11/19 14:13:32;;;;;;;18.27;13.27;;;;;;;1.12;100.00;99009.13;6131691;23;20286;-78
2022/11/19 14:27:28;;;;;;;17.67;12.93;;;;;;;0.87;100.00;99015.56;6157644;23;20214;-78
2022/11/19 14:30:04;;;;;;;16.63;11.87;;;;;;;0.87;100.00;99010.28;6131353;23;20273;-78
2022/11/19 14:32:32;;;;;;;18.20;12.40;;;;;;;0.90;100.00;99017.84;6130970;23;20647;-79
2022/11/19 14:35:01;;;;;;;15.20;12.27;;;;;;;0.90;100.00;99015.22;6157864;23;20206;-78
2022/11/19 14:37:44;;;;;;;18.77;13.57;;;;;;;0.98;100.00;99014.38;6158078;23;20206;-78
2022/11/19 14:40:16;;;;;;;16.17;11.80;;;;;;;0.99;100.00;99008.91;6115560;23;20210;-78
2022/11/19 14:46:06;;;;;;;15.13;11.67;;;;;;;1.01;100.00;99016.66;6157518;23;20211;-78
2022/11/19 14:48:38;;;;;;;14.17;10.83;;;;;;;1.08;100.00;99022.84;6156793;23;20735;-78
2022/11/19 14:51:35;;;;;;;13.53;10.47;;;;;;;1.17;100.00;99021.81;6156942;23;20651;-78
2022/11/19 14:54:04;;;;;;;14.33;11.20;;;;;;;1.21;100.00;99023.91;6120788;23;20214;-78
2022/11/19 14:56:32;;;;;;;14.07;10.83;;;;;;;1.11;100.00;99019.88;6156924;23;20198;-78
2022/11/19 14:59:15;;;;;;;14.97;11.53;;;;;;;1.08;100.00;99017.56;6156800;23;20210;-78
2022/11/19 15:01:53;;;;;;;14.17;10.90;;;;;;;1.10;100.00;99011.16;6157008;23;20285;-78
2022/11/19 15:04:21;;;;;;;14.67;10.70;;;;;;;1.03;100.00;99006.72;6130105;23;20210;-78
2022/11/19 15:06:49;;;;;;;16.73;11.93;;;;;;;1.02;100.00;99023.56;6156472;23;20206;-78
2022/11/19 15:09:51;;;;;;;13.70;10.77;;;;;;;0.85;100.00;99013.09;6156637;23;20274;-78
2022/11/19 15:12:19;;;;;;;14.43;10.77;;;;;;;0.84;100.00;99005.38;6155903;23;20257;-78
2022/11/19 15:17:42;;;;;;;14.80;11.47;;;;;;;0.88;100.00;99007.50;6132020;23;20254;-78
2022/11/19 15:20:24;;;;;;;12.93;9.90;;;;;;;1.01;100.00;99006.09;6156614;23;20532;-77
2022/11/19 15:23:14;;;;;;;13.63;10.60;;;;;;;0.76;100.00;99008.03;6130754;23;20198;-78
2022/11/19 15:25:44;;;;;;;12.87;10.00;;;;;;;0.52;100.00;99008.94;6106037;23;20553;-78
2022/11/19 15:28:29;;;;;;;14.73;10.83;;;;;;;0.41;100.00;99017.25;6154061;23;20213;-78
2022/11/19 15:31:18;;;;;;;13.57;10.27;;;;;;;0.27;100.00;99010.88;6154988;23;20297;-78
2022/11/19 15:34:16;;;;;;;14.10;10.47;;;;;;;0.39;100.00;99025.31;6156546;23;20210;-78
2022/11/19 15:36:46;;;;;;;13.03;9.83;;;;;;;0.23;100.00;99022.72;6156583;23;20206;-79